Time;durP1;ratioP1;P1;durP2;ratioP2;P2;SDS_P1;SDS_P2;PMS_P1;PMS_P2;Temp;Humidity;BMP_temperature;BMP_pressure;BME280_temperature;BME280_humidity;BME280_pressure;Samples;Min_cycle;Max_cycle;Signal;HPM_P1;HPM_P2
2023/04/19 00:04:44;;;;;;;30.77;23.53;;;;;8.40;101969.00;;;;9788539;30;21762;-81
2023/04/19 00:09:46;;;;;;;30.50;22.70;;;;;8.40;101972.00;;;;9789659;30;20234;-81
2023/04/19 00:14:49;;;;;;;30.97;22.37;;;;;8.30;101975.00;;;;9760304;29;20235;-81
2023/04/19 00:19:51;;;;;;;32.60;24.57;;;;;8.20;101983.00;;;;9803888;30;20220;-81
2023/04/19 00:24:52;;;;;;;33.60;24.47;;;;;8.10;101978.00;;;;9777667;30;20223;-81
2023/04/19 00:29:56;;;;;;;30.73;23.20;;;;;8.10;101972.00;;;;9776154;30;20242;-81
2023/04/19 00:34:59;;;;;;;34.53;25.70;;;;;8.00;101969.00;;;;9804206;29;20239;-81
2023/04/19 00:40:01;;;;;;;35.73;25.67;;;;;8.00;101974.00;;;;9761163;30;20208;-82
2023/04/19 00:45:03;;;;;;;34.53;24.80;;;;;7.90;101974.00;;;;9776193;30;20274;-81
2023/04/19 00:50:06;;;;;;;34.00;25.20;;;;;7.80;101983.00;;;;9795309;29;20955;-81
2023/04/19 00:55:09;;;;;;;35.03;26.37;;;;;7.80;101978.00;;;;9775062;29;20244;-81
2023/04/19 01:00:12;;;;;;;31.63;23.90;;;;;7.70;101978.00;;;;9789579;30;20223;-81
2023/04/19 01:05:14;;;;;;;37.40;26.37;;;;;7.70;101958.00;;;;9788125;30;20235;-81
2023/04/19 01:10:16;;;;;;;35.57;24.80;;;;;7.70;101969.00;;;;9786840;29;20253;-81
2023/04/19 01:15:18;;;;;;;36.20;25.57;;;;;7.70;101966.00;;;;9774656;30;20234;-81
2023/04/19 01:20:23;;;;;;;39.30;25.77;;;;;7.60;101965.00;;;;9758693;30;20216;-81
2023/04/19 01:25:26;;;;;;;33.10;25.47;;;;;7.60;101962.00;;;;9780435;29;20350;-81
2023/04/19 01:30:28;;;;;;;34.53;25.83;;;;;7.50;101960.00;;;;9787766;29;20262;-81
2023/04/19 01:35:30;;;;;;;33.93;25.17;;;;;7.50;101965.00;;;;9786565;30;20346;-81
2023/04/19 01:40:31;;;;;;;37.17;27.07;;;;;7.60;101969.00;;;;9787523;30;21112;-81
2023/04/19 01:45:35;;;;;;;38.57;27.13;;;;;7.90;101963.00;;;;9772918;30;20215;-80
2023/04/19 01:50:37;;;;;;;37.77;26.60;;;;;8.10;101958.00;;;;9787221;30;20246;-81
2023/04/19 01:55:39;;;;;;;33.30;25.63;;;;;8.30;101958.00;;;;9786726;29;20316;-81
2023/04/19 02:00:41;;;;;;;34.40;25.73;;;;;8.50;101957.00;;;;9758269;30;20358;-81
2023/04/19 02:05:43;;;;;;;34.23;25.50;;;;;8.60;101947.00;;;;9766509;29;20296;-81
2023/04/19 02:10:45;;;;;;;34.83;24.70;;;;;8.70;101961.00;;;;9783437;30;20285;-81
2023/04/19 02:15:47;;;;;;;35.30;24.20;;;;;8.80;101953.00;;;;9790644;30;20365;-81
2023/04/19 02:20:50;;;;;;;32.70;23.87;;;;;8.80;101943.00;;;;9792838;29;20965;-81
2023/04/19 02:25:52;;;;;;;31.53;23.27;;;;;8.90;101947.00;;;;9791970;29;20255;-81
2023/04/19 02:30:54;;;;;;;32.40;22.10;;;;;8.90;101943.00;;;;9792039;30;20278;-81
2023/04/19 02:35:56;;;;;;;31.53;24.60;;;;;9.00;101939.00;;;;9807187;29;21087;-81
2023/04/19 02:41:00;;;;;;;33.73;24.80;;;;;9.00;101933.00;;;;9777590;30;20211;-81
2023/04/19 02:46:02;;;;;;;30.67;23.10;;;;;9.10;101929.00;;;;9791676;30;20212;-81
2023/04/19 02:51:04;;;;;;;29.17;22.40;;;;;9.10;101927.00;;;;9791924;29;20365;-81
2023/04/19 02:56:07;;;;;;;32.17;24.00;;;;;9.10;101922.00;;;;9790258;29;20243;-81
2023/04/19 03:01:09;;;;;;;30.90;23.50;;;;;9.20;101914.00;;;;9790551;30;20222;-81
2023/04/19 03:06:12;;;;;;;30.77;22.10;;;;;9.20;101918.00;;;;9776913;30;20207;-81
2023/04/19 03:11:15;;;;;;;29.20;22.27;;;;;9.30;101922.00;;;;9774233;30;21606;-81
2023/04/19 03:16:17;;;;;;;29.13;22.93;;;;;9.30;101921.00;;;;9774584;29;20223;-81
2023/04/19 03:21:21;;;;;;;28.83;21.73;;;;;9.40;101925.00;;;;9773746;30;20230;-82
2023/04/19 03:26:27;;;;;;;29.67;23.00;;;;;9.40;101910.00;;;;9773727;30;20226;-81
2023/04/19 03:31:31;;;;;;;28.27;21.63;;;;;9.50;101904.00;;;;9790174;29;20227;-81
2023/04/19 03:36:34;;;;;;;28.67;21.53;;;;;9.50;101903.00;;;;9729466;30;20220;-81
2023/04/19 03:41:39;;;;;;;28.67;22.43;;;;;9.50;101902.00;;;;9736893;30;20920;-81
2023/04/19 03:46:49;;;;;;;28.60;20.60;;;;;9.50;101906.00;;;;9735107;30;20950;-81
2023/04/19 03:51:56;;;;;;;33.93;22.30;;;;;9.40;101904.00;;;;9743066;30;20243;-81
2023/04/19 03:57:01;;;;;;;29.13;20.93;;;;;9.30;101901.00;;;;9773066;29;20223;-81
2023/04/19 04:02:03;;;;;;;29.53;21.17;;;;;9.10;101898.00;;;;9775722;30;20215;-81
2023/04/19 04:07:05;;;;;;;31.67;22.20;;;;;9.00;101898.00;;;;9758436;30;20246;-81
2023/04/19 04:12:08;;;;;;;30.97;21.07;;;;;8.90;101912.00;;;;9786510;29;20261;-80
2023/04/19 04:17:10;;;;;;;30.37;21.77;;;;;8.70;101907.00;;;;9801000;30;20335;-81
2023/04/19 04:22:13;;;;;;;28.73;21.97;;;;;8.70;101914.00;;;;9774512;30;20270;-82
2023/04/19 04:27:20;;;;;;;30.63;21.90;;;;;8.60;101907.00;;;;9774271;29;20300;-82
2023/04/19 04:32:23;;;;;;;31.67;21.20;;;;;8.40;101920.00;;;;9757422;30;20227;-83
2023/04/19 04:37:32;;;;;;;32.07;22.33;;;;;8.40;101927.00;;;;9772378;30;20220;-83
2023/04/19 04:42:36;;;;;;;30.90;22.13;;;;;8.50;101927.00;;;;9757932;29;20211;-82
2023/04/19 04:47:39;;;;;;;31.93;23.13;;;;;8.40;101924.00;;;;9773223;30;20220;-83
2023/04/19 04:52:41;;;;;;;32.63;23.20;;;;;8.50;101933.00;;;;9770960;30;22079;-83
2023/04/19 04:57:58;;;;;;;32.90;24.07;;;;;8.50;101932.00;;;;9769469;30;20414;-82
2023/04/19 05:03:28;;;;;;;33.10;22.77;;;;;8.60;101925.00;;;;9784401;30;20302;-82
2023/04/19 05:08:33;;;;;;;34.30;23.90;;;;;8.60;101926.00;;;;9769214;30;20218;-82
2023/04/19 05:13:48;;;;;;;40.10;25.90;;;;;8.80;101935.00;;;;9741190;30;20227;-82
2023/04/19 05:18:50;;;;;;;35.87;24.90;;;;;8.90;101936.00;;;;9770308;30;20223;-82
2023/04/19 05:23:53;;;;;;;37.93;24.70;;;;;8.90;101938.00;;;;9769119;29;20969;-82
2023/04/19 05:28:55;;;;;;;32.53;24.57;;;;;9.00;101932.00;;;;9768933;30;21948;-82
2023/04/19 05:34:11;;;;;;;36.43;26.97;;;;;9.00;101942.00;;;;9742272;30;20231;-82
2023/04/19 05:39:13;;;;;;;40.40;26.67;;;;;9.10;101940.00;;;;9759143;29;20220;-82
2023/04/19 05:44:15;;;;;;;36.90;25.83;;;;;9.30;101941.00;;;;9790855;30;20950;-82
2023/04/19 05:49:17;;;;;;;37.50;26.67;;;;;9.70;101945.00;;;;9774046;30;20268;-83
2023/04/19 05:54:35;;;;;;;35.07;25.90;;;;;9.90;101945.00;;;;9791111;30;20239;-83
2023/04/19 05:59:38;;;;;;;35.23;24.90;;;;;9.90;101948.00;;;;9789438;30;20231;-81
2023/04/19 06:04:43;;;;;;;31.07;24.40;;;;;10.00;101948.00;;;;9761339;29;20212;-83
2023/04/19 06:09:45;;;;;;;32.10;25.30;;;;;10.20;101958.00;;;;9793529;30;20212;-81
2023/04/19 06:14:57;;;;;;;33.70;24.23;;;;;10.50;101948.00;;;;9765210;30;22021;-81
2023/04/19 06:20:00;;;;;;;30.60;24.17;;;;;10.60;101951.00;;;;9792115;29;20290;-81
2023/04/19 06:25:03;;;;;;;31.37;23.83;;;;;10.80;101943.00;;;;9781235;30;20226;-81
2023/04/19 06:30:05;;;;;;;30.13;23.87;;;;;11.10;101940.00;;;;9774287;29;20507;-81
2023/04/19 06:35:08;;;;;;;29.63;23.03;;;;;11.30;101937.00;;;;9781381;29;20231;-81
2023/04/19 06:40:10;;;;;;;33.07;22.17;;;;;11.50;101938.00;;;;9771766;29;20303;-81
2023/04/19 06:45:13;;;;;;;30.60;21.17;;;;;11.70;101931.00;;;;9806761;29;20218;-82
2023/04/19 06:50:15;;;;;;;31.10;23.07;;;;;12.00;101924.00;;;;9768651;29;20293;-82
2023/04/19 06:55:17;;;;;;;31.73;21.80;;;;;12.20;101931.00;;;;9796231;29;20224;-82
2023/04/19 07:00:21;;;;;;;27.57;20.93;;;;;12.40;101925.00;;;;9799150;30;22028;-81
2023/04/19 07:05:23;;;;;;;25.80;20.83;;;;;12.50;101924.00;;;;9783745;30;20211;-82
2023/04/19 07:10:25;;;;;;;29.30;20.17;;;;;12.90;101922.00;;;;9795559;30;20212;-82
2023/04/19 07:15:27;;;;;;;27.93;19.43;;;;;13.10;101919.00;;;;9783790;29;20228;-81
2023/04/19 07:20:30;;;;;;;24.80;19.30;;;;;13.40;101920.00;;;;9769661;30;20317;-82
2023/04/19 07:25:32;;;;;;;26.20;18.97;;;;;13.70;101918.00;;;;9789343;29;20305;-82
2023/04/19 07:30:35;;;;;;;26.17;18.30;;;;;13.90;101909.00;;;;9783931;29;20709;-82
2023/04/19 07:35:40;;;;;;;22.93;17.03;;;;;14.20;101902.00;;;;9770769;30;20239;-82
2023/04/19 07:40:42;;;;;;;23.27;16.47;;;;;14.30;101906.00;;;;9765619;29;22013;-82
2023/04/19 07:45:43;;;;;;;22.87;18.63;;;;;15.40;101901.00;;;;9765738;30;20277;-82
2023/04/19 07:50:45;;;;;;;17.73;15.23;;;;;15.90;101896.00;;;;9793591;30;20492;-82
2023/04/19 07:55:47;;;;;;;17.05;14.68;;;;;16.00;101895.00;;;;9805987;29;20239;-82
2023/04/19 08:00:49;;;;;;;16.10;14.18;;;;;16.00;101899.00;;;;9791299;30;20317;-83
2023/04/19 08:05:52;;;;;;;15.60;13.52;;;;;16.30;101895.00;;;;9760925;30;20204;-83
2023/04/19 08:10:54;;;;;;;15.13;13.07;;;;;16.10;101906.00;;;;9785948;30;20258;-82
2023/04/19 08:15:57;;;;;;;16.42;12.43;;;;;16.50;101900.00;;;;9771729;30;21848;-82
2023/04/19 08:21:02;;;;;;;13.43;12.02;;;;;17.00;101890.00;;;;9775213;29;20263;-83
2023/04/19 08:26:04;;;;;;;14.77;11.93;;;;;17.30;101884.00;;;;9802459;29;20585;-82
2023/04/19 08:31:07;;;;;;;12.90;11.52;;;;;17.60;101884.00;;;;9772532;30;20358;-83
2023/04/19 08:36:10;;;;;;;14.75;11.50;;;;;18.00;101878.00;;;;9746982;29;20262;-83
2023/04/19 08:41:13;;;;;;;11.90;10.63;;;;;18.20;101874.00;;;;9784142;30;20257;-83
2023/04/19 08:46:15;;;;;;;12.98;10.43;;;;;18.40;101870.00;;;;9786374;30;20301;-83
2023/04/19 08:51:18;;;;;;;12.30;11.00;;;;;18.20;101875.00;;;;9769640;29;20351;-83
2023/04/19 08:56:22;;;;;;;13.85;10.70;;;;;18.10;101870.00;;;;9772291;29;20230;-83
2023/04/19 09:01:25;;;;;;;10.85;9.65;;;;;18.90;101859.00;;;;9789435;30;20228;-83
2023/04/19 09:06:38;;;;;;;13.75;10.18;;;;;19.30;101862.00;;;;9757711;30;20313;-83
2023/04/19 09:11:41;;;;;;;11.77;9.55;;;;;19.60;101852.00;;;;9791950;29;21812;-83
2023/04/19 09:16:44;;;;;;;12.35;9.10;;;;;19.50;101853.00;;;;9773639;30;20223;-83
2023/04/19 09:21:50;;;;;;;12.73;8.80;;;;;19.70;101850.00;;;;9794223;30;20222;-83
2023/04/19 09:26:53;;;;;;;11.82;8.85;;;;;20.10;101853.00;;;;9793497;30;20725;-83
2023/04/19 09:31:58;;;;;;;9.50;8.50;;;;;20.30;101849.00;;;;9791583;30;20304;-83
2023/04/19 09:37:12;;;;;;;10.90;8.52;;;;;19.40;101849.00;;;;9774473;29;21722;-84
2023/04/19 09:42:45;;;;;;;10.60;7.47;;;;;20.50;101844.00;;;;9816087;29;20235;-80
2023/04/19 09:48:06;;;;;;;9.35;8.35;;;;;20.80;101836.00;;;;9772000;30;20796;-81
2023/04/19 09:53:10;;;;;;;9.80;8.07;;;;;20.60;101833.00;;;;9785259;30;20322;-81
2023/04/19 09:58:13;;;;;;;9.43;8.50;;;;;21.10;101823.00;;;;9789079;30;21723;-81
2023/04/19 10:03:17;;;;;;;10.05;8.25;;;;;21.40;101816.00;;;;9783842;29;20384;-80
2023/04/19 10:08:19;;;;;;;9.45;8.45;;;;;21.40;101816.00;;;;9781853;29;20293;-79
2023/04/19 10:13:23;;;;;;;8.30;7.03;;;;;21.40;101807.00;;;;9796810;29;20219;-80
2023/04/19 10:18:29;;;;;;;8.10;7.03;;;;;21.90;101804.00;;;;9802382;29;20250;-81
2023/04/19 10:23:32;;;;;;;8.48;7.60;;;;;22.70;101798.00;;;;9784813;30;21601;-81
2023/04/19 10:28:35;;;;;;;7.90;7.05;;;;;22.80;101789.00;;;;9813029;29;20881;-81
2023/04/19 10:33:37;;;;;;;7.22;6.53;;;;;22.90;101789.00;;;;9779334;30;20232;-81
2023/04/19 10:38:54;;;;;;;7.57;6.60;;;;;23.70;101781.00;;;;9788955;30;20238;-81
2023/04/19 10:43:56;;;;;;;6.60;6.00;;;;;23.30;101788.00;;;;9782814;30;20299;-81
2023/04/19 10:49:00;;;;;;;8.15;6.43;;;;;24.70;101774.00;;;;9805906;29;20223;-80
2023/04/19 10:54:07;;;;;;;7.68;6.88;;;;;24.10;101776.00;;;;9776105;30;21896;-80
2023/04/19 10:59:20;;;;;;;9.88;6.57;;;;;22.90;101774.00;;;;9807205;29;20208;-80
2023/04/19 11:04:31;;;;;;;9.77;6.65;;;;;22.10;101761.00;;;;9811377;30;20287;-81
2023/04/19 11:09:38;;;;;;;9.48;7.30;;;;;21.70;101747.00;;;;9864510;30;20207;-81
2023/04/19 11:14:45;;;;;;;9.52;7.15;;;;;22.60;101752.00;;;;9877547;29;20695;-81
2023/04/19 11:19:54;;;;;;;8.57;7.35;;;;;21.90;101748.00;;;;9882016;30;20695;-81
2023/04/19 11:25:03;;;;;;;9.57;7.15;;;;;22.90;101728.00;;;;9848256;30;20196;-81
2023/04/19 11:30:11;;;;;;;9.18;7.47;;;;;22.40;101734.00;;;;9865084;29;20222;-81
2023/04/19 11:35:14;;;;;;;10.55;7.22;;;;;22.50;101725.00;;;;9871659;30;20222;-82
2023/04/19 11:40:18;;;;;;;8.50;7.53;;;;;23.40;101716.00;;;;9867250;30;20231;-82
2023/04/19 11:45:29;;;;;;;8.95;8.05;;;;;23.40;101718.00;;;;9858650;30;20216;-81
2023/04/19 11:50:41;;;;;;;9.75;7.70;;;;;23.70;101709.00;;;;9883237;30;20283;-82
2023/04/19 11:55:52;;;;;;;8.50;6.65;;;;;23.90;101708.00;;;;9879873;30;20254;-82
2023/04/19 12:00:55;;;;;;;6.82;6.00;;;;;23.70;101685.00;;;;9881494;30;20204;-81
2023/04/19 12:06:02;;;;;;;6.03;5.43;;;;;23.60;101696.00;;;;9878324;30;20214;-82
2023/04/19 12:11:05;;;;;;;7.13;5.82;;;;;23.70;101702.00;;;;9890768;29;20212;-82
2023/04/19 12:16:07;;;;;;;7.97;6.30;;;;;23.80;101689.00;;;;9869786;30;20216;-81
2023/04/19 12:21:23;;;;;;;9.38;6.07;;;;;23.90;101685.00;;;;9852089;30;20208;-83
2023/04/19 12:26:27;;;;;;;7.20;5.75;;;;;23.60;101685.00;;;;9856085;29;20207;-82
2023/04/19 12:31:31;;;;;;;5.75;5.15;;;;;23.60;101689.00;;;;9868306;30;20581;-83
2023/04/19 12:36:34;;;;;;;6.88;5.13;;;;;23.80;101682.00;;;;9868295;30;20232;-83
2023/04/19 12:41:36;;;;;;;5.53;4.32;;;;;24.00;101683.00;;;;9869726;29;20223;-83
2023/04/19 12:46:38;;;;;;;7.30;5.15;;;;;23.60;101675.00;;;;9877392;30;20213;-83
2023/04/19 12:51:41;;;;;;;7.47;5.32;;;;;23.30;101681.00;;;;9884523;29;20751;-83
2023/04/19 12:56:43;;;;;;;5.97;5.38;;;;;22.80;101678.00;;;;9867065;29;20238;-83
2023/04/19 13:01:45;;;;;;;8.57;4.22;;;;;22.40;101667.00;;;;9866640;30;20210;-84
2023/04/19 13:06:47;;;;;;;9.65;3.80;;;;;22.40;101658.00;;;;9867266;30;20265;-83
2023/04/19 13:11:53;;;;;;;4.47;3.47;;;;;22.40;101660.00;;;;9864741;29;20219;-85
2023/04/19 13:16:55;;;;;;;5.22;3.72;;;;;23.20;101654.00;;;;9854040;30;20301;-83
2023/04/19 13:21:57;;;;;;;5.15;4.50;;;;;23.40;101655.00;;;;9813652;30;20237;-83
2023/04/19 13:27:00;;;;;;;6.70;3.85;;;;;23.90;101652.00;;;;9846054;30;20200;-84
2023/04/19 13:32:06;;;;;;;5.78;3.92;;;;;24.80;101645.00;;;;9886848;30;20302;-84
2023/04/19 13:37:08;;;;;;;5.35;3.78;;;;;25.70;101632.00;;;;9866078;29;20211;-84
2023/04/19 13:42:11;;;;;;;6.03;3.67;;;;;26.40;101621.00;;;;9880801;30;20212;-84
2023/04/19 13:47:13;;;;;;;2.78;2.58;;;;;26.90;101605.00;;;;9859935;30;20326;-84
2023/04/19 13:52:16;;;;;;;5.22;3.03;;;;;24.90;101608.00;;;;9867969;29;20211;-84
2023/04/19 13:57:18;;;;;;;2.95;2.35;;;;;28.00;101590.00;;;;9891778;29;20304;-83
2023/04/19 14:02:20;;;;;;;3.97;2.08;;;;;29.50;101587.00;;;;9866948;29;20200;-83
2023/04/19 14:07:22;;;;;;;5.32;2.65;;;;;29.60;101581.00;;;;9892646;29;20948;-83
2023/04/19 14:12:25;;;;;;;7.25;2.42;;;;;30.00;101591.00;;;;9927896;29;20231;-84
2023/04/19 14:17:27;;;;;;;4.97;1.85;;;;;30.10;101587.00;;;;9901688;29;20234;-83
2023/04/19 14:22:30;;;;;;;3.88;1.95;;;;;29.90;101569.00;;;;9889826;30;20212;-84
2023/04/19 14:27:33;;;;;;;3.38;2.53;;;;;30.10;101578.00;;;;9875263;30;20196;-83
2023/04/19 14:32:35;;;;;;;7.53;2.75;;;;;30.10;101564.00;;;;9883926;29;20616;-84
2023/04/19 14:37:38;;;;;;;2.72;2.47;;;;;30.30;101566.00;;;;9885712;30;20232;-82
2023/04/19 14:42:40;;;;;;;2.33;2.13;;;;;30.20;101556.00;;;;9874559;29;20204;-83
2023/04/19 14:47:41;;;;;;;3.75;2.55;;;;;30.60;101556.00;;;;9880174;30;20249;-83
2023/04/19 14:52:44;;;;;;;3.08;2.10;;;;;30.20;101561.00;;;;9883770;30;20914;-83
2023/04/19 14:57:46;;;;;;;4.07;2.35;;;;;30.50;101561.00;;;;9862441;29;20247;-83
2023/04/19 15:02:48;;;;;;;6.03;2.55;;;;;28.30;101574.00;;;;9888867;29;20293;-83
2023/04/19 15:07:50;;;;;;;8.20;2.42;;;;;22.70;101558.00;;;;9888211;29;20192;-83
2023/04/19 15:12:52;;;;;;;4.32;2.38;;;;;21.30;101571.00;;;;9902529;29;20879;-83
2023/04/19 15:17:54;;;;;;;4.93;2.63;;;;;20.50;101557.00;;;;9882801;29;20310;-82
2023/04/19 15:22:56;;;;;;;3.42;2.30;;;;;19.70;101548.00;;;;9865781;29;20212;-83
2023/04/19 15:27:58;;;;;;;4.03;2.25;;;;;18.60;101539.00;;;;9887181;29;20219;-83
2023/04/19 15:33:00;;;;;;;3.03;2.33;;;;;18.80;101542.00;;;;9868159;29;20211;-82
2023/04/19 15:38:02;;;;;;;5.47;2.22;;;;;18.60;101532.00;;;;9870557;29;20232;-83
2023/04/19 15:43:04;;;;;;;2.50;2.30;;;;;19.30;101522.00;;;;9859593;29;20620;-83
2023/04/19 15:48:06;;;;;;;3.67;2.08;;;;;19.40;101525.00;;;;9865998;29;20204;-83
2023/04/19 15:53:08;;;;;;;6.95;2.50;;;;;18.40;101529.00;;;;9876665;29;20273;-82
2023/04/19 15:58:10;;;;;;;4.97;2.42;;;;;17.70;101526.00;;;;9870079;29;20235;-82
2023/04/19 16:03:12;;;;;;;4.18;2.00;;;;;17.30;101520.00;;;;9847337;30;20263;-82
2023/04/19 16:08:18;;;;;;;5.65;2.17;;;;;17.10;101524.00;;;;9890403;30;20251;-82
2023/04/19 16:13:20;;;;;;;4.97;2.75;;;;;16.90;101519.00;;;;9874251;30;20215;-81
2023/04/19 16:18:22;;;;;;;4.72;2.92;;;;;16.70;101528.00;;;;9900574;30;20222;-82
2023/04/19 16:23:24;;;;;;;6.88;2.60;;;;;16.50;101524.00;;;;9901277;29;20299;-81
2023/04/19 16:28:26;;;;;;;4.03;2.35;;;;;16.30;101526.00;;;;9876968;29;20212;-82
2023/04/19 16:33:28;;;;;;;7.28;2.90;;;;;16.10;101514.00;;;;9861123;30;20306;-81
2023/04/19 16:38:30;;;;;;;4.60;2.80;;;;;15.90;101508.00;;;;9895045;29;20247;-80
2023/04/19 16:43:32;;;;;;;5.95;2.78;;;;;15.80;101519.00;;;;9871656;30;20278;-80
2023/04/19 16:48:34;;;;;;;3.00;2.70;;;;;15.70;101511.00;;;;9860042;29;20705;-80
2023/04/19 16:53:36;;;;;;;4.20;3.10;;;;;15.60;101503.00;;;;9864929;29;20258;-81
2023/04/19 16:58:39;;;;;;;8.18;2.85;;;;;15.50;101498.00;;;;9848432;29;20218;-80
2023/04/19 17:03:41;;;;;;;4.80;3.10;;;;;15.40;101505.00;;;;9869887;30;20304;-81
2023/04/19 17:08:43;;;;;;;5.13;3.53;;;;;15.30;101503.00;;;;9857190;30;20212;-81
2023/04/19 17:13:45;;;;;;;5.77;3.70;;;;;15.20;101508.00;;;;9872437;30;20215;-82
2023/04/19 17:18:47;;;;;;;6.93;3.40;;;;;15.10;101508.00;;;;9907362;29;20207;-82
2023/04/19 17:23:49;;;;;;;3.63;3.20;;;;;14.90;101499.00;;;;9894421;30;20879;-82
2023/04/19 17:28:51;;;;;;;5.90;3.83;;;;;14.80;101512.00;;;;9848742;29;20816;-79
2023/04/19 17:33:53;;;;;;;5.30;3.70;;;;;14.70;101497.00;;;;9865396;29;20208;-79
2023/04/19 17:38:55;;;;;;;83.27;60.80;;;;;14.50;101501.00;;;;9900877;29;20239;-81
2023/04/19 17:43:56;;;;;;;56.27;42.67;;;;;14.30;101497.00;;;;9906578;29;20208;-81
2023/04/19 17:48:59;;;;;;;15.10;12.47;;;;;14.10;101504.00;;;;9865519;29;20227;-82
2023/04/19 17:54:01;;;;;;;44.67;28.00;;;;;14.00;101503.00;;;;9868861;30;20228;-81
2023/04/19 17:59:03;;;;;;;40.63;29.07;;;;;13.80;101498.00;;;;9884432;29;20303;-82
2023/04/19 18:04:05;;;;;;;40.33;27.70;;;;;13.70;101495.00;;;;9861514;30;20305;-81
2023/04/19 18:09:08;;;;;;;19.00;12.70;;;;;13.50;101497.00;;;;9908417;30;20221;-80
2023/04/19 18:14:10;;;;;;;18.47;11.27;;;;;13.40;101498.00;;;;9876743;29;20223;-81
2023/04/19 18:19:12;;;;;;;17.30;11.73;;;;;13.20;101507.00;;;;9886209;29;20218;-82
2023/04/19 18:24:14;;;;;;;15.80;10.23;;;;;13.10;101502.00;;;;9872353;29;20204;-80
2023/04/19 18:29:18;;;;;;;61.80;41.40;;;;;13.00;101502.00;;;;9874649;29;20216;-81
2023/04/19 18:34:20;;;;;;;8.07;5.73;;;;;12.90;101504.00;;;;9897160;29;20248;-80
2023/04/19 18:39:22;;;;;;;10.50;7.90;;;;;12.80;101512.00;;;;9878658;29;20219;-81
2023/04/19 18:44:24;;;;;;;14.60;9.60;;;;;12.60;101521.00;;;;9860081;29;20208;-82
2023/04/19 18:49:46;;;;;;;11.27;7.63;;;;;12.50;101517.00;;;;9868190;29;20220;-81
2023/04/19 18:55:06;;;;;;;25.07;15.47;;;;;12.30;101520.00;;;;9891618;29;20357;-81
2023/04/19 19:00:13;;;;;;;11.90;7.70;;;;;12.20;101526.00;;;;9861662;29;20211;-81
2023/04/19 19:05:15;;;;;;;23.60;13.97;;;;;12.10;101529.00;;;;9841107;30;20305;-81
2023/04/19 19:10:19;;;;;;;24.13;12.90;;;;;12.00;101529.00;;;;9882334;29;20203;-81
2023/04/19 19:15:24;;;;;;;302.23;194.70;;;;;11.90;101538.00;;;;9857627;29;20234;-80
2023/04/19 19:20:26;;;;;;;47.80;31.77;;;;;11.80;101535.00;;;;9891641;29;20844;-82
2023/04/19 19:25:29;;;;;;;5.97;5.13;;;;;11.70;101535.00;;;;9867737;29;20211;-81
2023/04/19 19:30:32;;;;;;;25.10;15.17;;;;;11.60;101547.00;;;;9873449;29;20207;-83
2023/04/19 19:35:34;;;;;;;9.70;6.30;;;;;11.50;101543.00;;;;9875261;29;20684;-83
2023/04/19 19:40:37;;;;;;;39.60;30.57;;;;;11.40;101540.00;;;;9870993;29;20216;-82
2023/04/19 19:46:00;;;;;;;8.80;5.43;;;;;11.30;101538.00;;;;9877020;29;20250;-82
2023/04/19 19:51:03;;;;;;;29.90;12.63;;;;;11.10;101544.00;;;;9892162;29;20212;-83
2023/04/19 19:56:25;;;;;;;9.50;5.47;;;;;11.00;101549.00;;;;9887213;30;20240;-82
2023/04/19 20:01:27;;;;;;;7.80;6.03;;;;;10.90;101549.00;;;;9877091;30;20228;-82
2023/04/19 20:06:31;;;;;;;13.27;8.57;;;;;10.80;101546.00;;;;9843555;30;20303;-82
2023/04/19 20:11:36;;;;;;;19.63;10.87;;;;;10.70;101549.00;;;;9880999;29;20215;-82
2023/04/19 20:16:38;;;;;;;16.03;11.07;;;;;10.60;101562.00;;;;9873330;30;20218;-82
2023/04/19 20:21:42;;;;;;;10.60;5.10;;;;;10.60;101560.00;;;;9887479;29;20203;-82
2023/04/19 20:26:47;;;;;;;16.73;9.07;;;;;10.60;101556.00;;;;9883383;29;20195;-82
2023/04/19 20:31:49;;;;;;;25.40;14.57;;;;;10.60;101558.00;;;;9877914;30;20238;-82
2023/04/19 20:36:51;;;;;;;24.27;10.27;;;;;10.50;101568.00;;;;9889115;30;20247;-82
2023/04/19 20:41:53;;;;;;;21.70;13.27;;;;;10.40;101565.00;;;;9893838;29;20285;-82
2023/04/19 20:46:55;;;;;;;8.03;5.07;;;;;10.30;101558.00;;;;9868371;29;20264;-82
2023/04/19 20:51:57;;;;;;;10.77;6.50;;;;;10.20;101566.00;;;;9860031;29;20331;-82
2023/04/19 20:57:00;;;;;;;7.77;4.27;;;;;10.10;101563.00;;;;9887164;29;20230;-82
2023/04/19 21:02:02;;;;;;;8.03;4.60;;;;;10.00;101570.00;;;;9884945;29;20231;-82
2023/04/19 21:07:05;;;;;;;10.03;7.10;;;;;9.90;101566.00;;;;9896085;30;20188;-82
2023/04/19 21:12:07;;;;;;;5.00;3.17;;;;;9.90;101563.00;;;;9874010;30;20605;-82
2023/04/19 21:17:09;;;;;;;4.03;2.63;;;;;9.90;101559.00;;;;9883555;30;20248;-82
2023/04/19 21:22:11;;;;;;;3.40;2.50;;;;;9.90;101556.00;;;;9872084;30;20664;-82
2023/04/19 21:27:14;;;;;;;4.43;2.77;;;;;9.80;101566.00;;;;9903632;30;20250;-82
2023/04/19 21:32:16;;;;;;;5.97;2.60;;;;;9.70;101566.00;;;;9895784;29;20231;-82
2023/04/19 21:37:19;;;;;;;5.17;3.00;;;;;9.70;101575.00;;;;9892469;30;20220;-82
2023/04/19 21:42:27;;;;;;;4.30;2.80;;;;;9.70;101567.00;;;;9870484;30;20268;-82
2023/04/19 21:47:29;;;;;;;2.90;2.60;;;;;9.60;101559.00;;;;9874407;30;20212;-82
2023/04/19 21:52:32;;;;;;;3.47;2.50;;;;;9.50;101573.00;;;;9842770;30;20615;-83
2023/04/19 21:57:36;;;;;;;3.00;2.70;;;;;9.50;101570.00;;;;9879795;30;20568;-82
2023/04/19 22:02:38;;;;;;;5.50;2.50;;;;;9.40;101569.00;;;;9873390;29;20204;-82
2023/04/19 22:07:40;;;;;;;7.87;3.00;;;;;9.30;101573.00;;;;9884778;30;20212;-82
2023/04/19 22:12:43;;;;;;;4.70;2.77;;;;;9.30;101565.00;;;;9883186;30;20298;-82
2023/04/19 22:18:01;;;;;;;6.17;2.90;;;;;9.20;101571.00;;;;9911018;29;20246;-82
2023/04/19 22:23:04;;;;;;;3.80;2.53;;;;;9.10;101561.00;;;;9891502;29;20212;-83
2023/04/19 22:28:06;;;;;;;3.93;2.80;;;;;9.10;101567.00;;;;9900169;30;20227;-82
2023/04/19 22:33:08;;;;;;;6.07;3.10;;;;;9.00;101566.00;;;;9880064;30;20216;-82
2023/04/19 22:38:10;;;;;;;7.33;3.40;;;;;9.00;101569.00;;;;9867980;30;20667;-82
2023/04/19 22:43:12;;;;;;;6.37;3.30;;;;;9.00;101567.00;;;;9879260;30;20770;-82
2023/04/19 22:48:14;;;;;;;5.53;3.00;;;;;9.00;101560.00;;;;9889776;30;20595;-82
2023/04/19 22:53:17;;;;;;;6.60;3.90;;;;;8.90;101551.00;;;;9871928;29;20232;-83
2023/04/19 22:58:19;;;;;;;5.20;2.90;;;;;8.80;101560.00;;;;9900169;30;20220;-82
2023/04/19 23:03:21;;;;;;;6.20;2.90;;;;;8.70;101566.00;;;;9843215;30;20212;-82
2023/04/19 23:08:23;;;;;;;3.67;3.20;;;;;8.60;101552.00;;;;9878581;30;20233;-82
2023/04/19 23:13:26;;;;;;;12.10;3.50;;;;;8.50;101552.00;;;;9894465;29;20204;-82
2023/04/19 23:18:28;;;;;;;5.30;3.07;;;;;8.40;101540.00;;;;9863202;30;20269;-82
2023/04/19 23:23:31;;;;;;;5.03;2.97;;;;;8.30;101540.00;;;;9897068;30;20226;-82
2023/04/19 23:28:33;;;;;;;5.37;3.13;;;;;8.20;101543.00;;;;9887331;30;20281;-82
2023/04/19 23:33:35;;;;;;;5.57;3.40;;;;;8.10;101541.00;;;;9902144;29;20260;-82
2023/04/19 23:38:37;;;;;;;5.93;3.37;;;;;8.00;101542.00;;;;9878214;30;20255;-82
2023/04/19 23:43:39;;;;;;;10.33;4.40;;;;;7.90;101541.00;;;;9854802;30;20212;-82
